sensor_id;sensor_type;location;lat;lon;timestamp;pressure;altitude;pressure_sealevel;temperature;humidity
55217;BME280;41086;46.736;15.666;2022-11-11T00:01:16;100038.44;;;3.55;100.00
55217;BME280;41086;46.736;15.666;2022-11-11T00:04:01;100055.97;;;3.50;100.00
55217;BME280;41086;46.736;15.666;2022-11-11T00:06:46;100042.06;;;3.48;100.00
55217;BME280;41086;46.736;15.666;2022-11-11T00:09:31;100057.69;;;3.54;100.00
55217;BME280;41086;46.736;15.666;2022-11-11T00:12:17;100048.84;;;3.60;100.00
55217;BME280;41086;46.736;15.666;2022-11-11T00:15:03;100051.53;;;3.57;100.00
55217;BME280;41086;46.736;15.666;2022-11-11T00:17:49;100050.63;;;3.58;100.00
55217;BME280;41086;46.736;15.666;2022-11-11T00:20:53;100044.59;;;3.52;100.00
55217;BME280;41086;46.736;15.666;2022-11-11T00:23:56;100052.59;;;3.43;100.00
55217;BME280;41086;46.736;15.666;2022-11-11T00:27:01;100053.56;;;3.38;100.00
55217;BME280;41086;46.736;15.666;2022-11-11T00:29:47;100045.69;;;3.38;100.00
55217;BME280;41086;46.736;15.666;2022-11-11T00:32:32;100063.13;;;3.39;100.00
55217;BME280;41086;46.736;15.666;2022-11-11T00:35:18;100051.88;;;3.32;100.00
55217;BME280;41086;46.736;15.666;2022-11-11T00:38:22;100057.09;;;3.35;100.00
55217;BME280;41086;46.736;15.666;2022-11-11T00:41:26;100059.69;;;3.37;100.00
55217;BME280;41086;46.736;15.666;2022-11-11T00:44:11;100056.28;;;3.30;100.00
55217;BME280;41086;46.736;15.666;2022-11-11T00:46:57;100062.41;;;3.29;100.00
55217;BME280;41086;46.736;15.666;2022-11-11T00:50:02;100063.28;;;3.29;100.00
55217;BME280;41086;46.736;15.666;2022-11-11T00:55:59;100067.63;;;3.30;100.00
55217;BME280;41086;46.736;15.666;2022-11-11T00:58:45;100070.19;;;3.33;100.00
55217;BME280;41086;46.736;15.666;2022-11-11T01:01:32;100055.41;;;3.29;100.00
55217;BME280;41086;46.736;15.666;2022-11-11T01:04:18;100054.66;;;3.20;100.00
55217;BME280;41086;46.736;15.666;2022-11-11T01:07:03;100044.28;;;3.14;100.00
55217;BME280;41086;46.736;15.666;2022-11-11T01:09:48;100042.56;;;3.13;100.00
55217;BME280;41086;46.736;15.666;2022-11-11T01:12:34;100032.03;;;3.14;100.00
55217;BME280;41086;46.736;15.666;2022-11-11T01:15:19;100034.75;;;3.09;100.00
55217;BME280;41086;46.736;15.666;2022-11-11T01:18:05;100023.38;;;3.09;100.00
55217;BME280;41086;46.736;15.666;2022-11-11T01:21:03;100015.59;;;3.03;100.00
55217;BME280;41086;46.736;15.666;2022-11-11T01:23:50;100017.31;;;3.05;100.00
55217;BME280;41086;46.736;15.666;2022-11-11T01:26:35;100019.13;;;3.02;100.00
55217;BME280;41086;46.736;15.666;2022-11-11T01:29:21;100008.78;;;2.91;100.00
55217;BME280;41086;46.736;15.666;2022-11-11T01:32:06;100005.38;;;2.84;100.00
55217;BME280;41086;46.736;15.666;2022-11-11T01:34:51;100016.69;;;2.85;100.00
55217;BME280;41086;46.736;15.666;2022-11-11T01:37:37;100002.78;;;2.81;100.00
55217;BME280;41086;46.736;15.666;2022-11-11T01:40:22;99994.13;;;2.76;100.00
55217;BME280;41086;46.736;15.666;2022-11-11T01:43:16;99985.41;;;2.76;100.00
55217;BME280;41086;46.736;15.666;2022-11-11T01:46:02;99992.34;;;2.80;100.00
55217;BME280;41086;46.736;15.666;2022-11-11T01:48:54;99991.50;;;2.76;100.00
55217;BME280;41086;46.736;15.666;2022-11-11T01:52:23;99990.66;;;2.76;100.00
55217;BME280;41086;46.736;15.666;2022-11-11T01:55:17;99988.03;;;2.76;100.00
55217;BME280;41086;46.736;15.666;2022-11-11T01:58:06;99988.03;;;2.77;100.00
55217;BME280;41086;46.736;15.666;2022-11-11T02:00:53;99995.03;;;2.74;100.00
55217;BME280;41086;46.736;15.666;2022-11-11T02:03:40;99985.44;;;2.73;100.00
55217;BME280;41086;46.736;15.666;2022-11-11T02:06:27;99984.56;;;2.74;100.00
55217;BME280;41086;46.736;15.666;2022-11-11T02:09:13;99983.66;;;2.78;100.00
55217;BME280;41086;46.736;15.666;2022-11-11T02:12:01;99973.28;;;2.69;100.00
55217;BME280;41086;46.736;15.666;2022-11-11T02:15:07;99988.84;;;2.81;100.00
55217;BME280;41086;46.736;15.666;2022-11-11T02:17:53;99988.84;;;2.81;100.00
55217;BME280;41086;46.736;15.666;2022-11-11T02:20:44;99990.63;;;2.77;100.00
55217;BME280;41086;46.736;15.666;2022-11-11T02:26:24;99986.09;;;2.90;100.00
55217;BME280;41086;46.736;15.666;2022-11-11T02:29:14;99982.66;;;2.86;100.00
55217;BME280;41086;46.736;15.666;2022-11-11T02:32:01;99989.75;;;2.78;100.00
55217;BME280;41086;46.736;15.666;2022-11-11T02:34:46;99994.13;;;2.76;100.00
55217;BME280;41086;46.736;15.666;2022-11-11T02:37:32;99983.75;;;2.69;100.00
55217;BME280;41086;46.736;15.666;2022-11-11T02:40:20;99988.22;;;2.60;100.00
55217;BME280;41086;46.736;15.666;2022-11-11T02:43:07;99985.63;;;2.59;100.00
55217;BME280;41086;46.736;15.666;2022-11-11T02:45:53;99991.75;;;2.55;100.00
55217;BME280;41086;46.736;15.666;2022-11-11T02:48:38;99991.03;;;2.45;100.00
55217;BME280;41086;46.736;15.666;2022-11-11T02:51:23;99996.31;;;2.42;100.00
55217;BME280;41086;46.736;15.666;2022-11-11T02:54:09;99995.47;;;2.37;100.00
55217;BME280;41086;46.736;15.666;2022-11-11T02:56:54;99982.47;;;2.29;100.00
55217;BME280;41086;46.736;15.666;2022-11-11T02:59:52;99999.06;;;2.25;100.00
55217;BME280;41086;46.736;15.666;2022-11-11T03:02:37;100003.44;;;2.25;100.00
55217;BME280;41086;46.736;15.666;2022-11-11T03:05:23;100007.03;;;2.16;100.00
55217;BME280;41086;46.736;15.666;2022-11-11T03:08:09;100007.97;;;2.12;100.00
55217;BME280;41086;46.736;15.666;2022-11-11T03:10:54;100011.44;;;2.12;100.00
55217;BME280;41086;46.736;15.666;2022-11-11T03:13:40;100003.63;;;2.08;100.00
55217;BME280;41086;46.736;15.666;2022-11-11T03:16:26;100014.06;;;2.12;100.00
55217;BME280;41086;46.736;15.666;2022-11-11T03:19:31;100020.09;;;2.17;100.00
55217;BME280;41086;46.736;15.666;2022-11-11T03:22:16;100021.72;;;2.28;100.00
55217;BME280;41086;46.736;15.666;2022-11-11T03:25:22;100030.56;;;2.16;100.00
55217;BME280;41086;46.736;15.666;2022-11-11T03:28:22;100035.91;;;2.07;100.00
55217;BME280;41086;46.736;15.666;2022-11-11T03:31:09;100029.78;;;2.09;100.00
55217;BME280;41086;46.736;15.666;2022-11-11T03:33:55;100037.66;;;2.05;100.00
55217;BME280;41086;46.736;15.666;2022-11-11T03:36:40;100040.25;;;2.06;100.00
55217;BME280;41086;46.736;15.666;2022-11-11T03:39:44;100028.97;;;1.99;100.00
55217;BME280;41086;46.736;15.666;2022-11-11T03:42:29;100024.63;;;2.02;100.00
55217;BME280;41086;46.736;15.666;2022-11-11T03:45:15;100035.94;;;2.00;100.00
55217;BME280;41086;46.736;15.666;2022-11-11T03:48:00;100045.50;;;2.03;100.00
55217;BME280;41086;46.736;15.666;2022-11-11T03:50:46;100042.06;;;1.98;100.00
55217;BME280;41086;46.736;15.666;2022-11-11T03:53:32;100036.00;;;1.96;100.00
55217;BME280;41086;46.736;15.666;2022-11-11T03:56:17;100045.53;;;2.00;100.00
55217;BME280;41086;46.736;15.666;2022-11-11T03:59:02;100039.47;;;1.95;100.00
55217;BME280;41086;46.736;15.666;2022-11-11T04:01:47;100041.25;;;1.93;100.00
55217;BME280;41086;46.736;15.666;2022-11-11T04:04:51;100039.59;;;1.81;100.00
55217;BME280;41086;46.736;15.666;2022-11-11T04:07:55;100045.72;;;1.80;100.00
55217;BME280;41086;46.736;15.666;2022-11-11T04:11:02;100045.69;;;1.82;100.00
55217;BME280;41086;46.736;15.666;2022-11-11T04:13:50;100041.28;;;1.87;100.00
55217;BME280;41086;46.736;15.666;2022-11-11T04:16:55;100043.06;;;1.85;100.00
55217;BME280;41086;46.736;15.666;2022-11-11T04:19:40;100046.63;;;1.73;100.00
55217;BME280;41086;46.736;15.666;2022-11-11T04:22:44;100049.22;;;1.77;100.00
55217;BME280;41086;46.736;15.666;2022-11-11T04:25:29;100048.34;;;1.77;100.00
55217;BME280;41086;46.736;15.666;2022-11-11T04:28:33;100062.31;;;1.74;100.00
55217;BME280;41086;46.736;15.666;2022-11-11T04:31:37;100058.03;;;1.66;100.00
55217;BME280;41086;46.736;15.666;2022-11-11T04:34:44;100057.19;;;1.61;100.00
55217;BME280;41086;46.736;15.666;2022-11-11T04:37:30;100068.53;;;1.57;100.00
55217;BME280;41086;46.736;15.666;2022-11-11T04:40:16;100066.75;;;1.63;100.00
55217;BME280;41086;46.736;15.666;2022-11-11T04:43:20;100062.41;;;1.59;100.00
55217;BME280;41086;46.736;15.666;2022-11-11T04:46:06;100065.88;;;1.64;100.00
55217;BME280;41086;46.736;15.666;2022-11-11T04:48:51;100067.63;;;1.64;100.00
55217;BME280;41086;46.736;15.666;2022-11-11T04:51:36;100075.47;;;1.62;100.00
55217;BME280;41086;46.736;15.666;2022-11-11T04:54:40;100084.22;;;1.57;100.00
55217;BME280;41086;46.736;15.666;2022-11-11T04:57:47;100078.16;;;1.53;100.00
55217;BME280;41086;46.736;15.666;2022-11-11T05:00:33;100079.00;;;1.53;100.00
55217;BME280;41086;46.736;15.666;2022-11-11T05:03:19;100093.84;;;1.50;100.00
55217;BME280;41086;46.736;15.666;2022-11-11T05:06:07;100093.00;;;1.43;100.00
55217;BME280;41086;46.736;15.666;2022-11-11T05:09:11;100092.16;;;1.40;100.00
55217;BME280;41086;46.736;15.666;2022-11-11T05:11:57;100088.69;;;1.35;100.00
55217;BME280;41086;46.736;15.666;2022-11-11T05:14:42;100083.50;;;1.27;100.00
55217;BME280;41086;46.736;15.666;2022-11-11T05:17:47;100082.66;;;1.22;100.00
55217;BME280;41086;46.736;15.666;2022-11-11T05:20:50;100094.84;;;1.26;100.00
55217;BME280;41086;46.736;15.666;2022-11-11T05:23:54;100091.38;;;1.24;100.00
55217;BME280;41086;46.736;15.666;2022-11-11T05:26:58;100096.59;;;1.24;100.00
55217;BME280;41086;46.736;15.666;2022-11-11T05:29:43;100107.03;;;1.25;100.00
55217;BME280;41086;46.736;15.666;2022-11-11T05:32:29;100095.72;;;1.26;100.00
55217;BME280;41086;46.736;15.666;2022-11-11T05:35:15;100095.66;;;1.32;100.00
55217;BME280;41086;46.736;15.666;2022-11-11T05:38:03;100100.00;;;1.38;100.00
55217;BME280;41086;46.736;15.666;2022-11-11T05:41:07;100103.47;;;1.42;100.00
55217;BME280;41086;46.736;15.666;2022-11-11T05:43:52;100104.34;;;1.39;100.00
55217;BME280;41086;46.736;15.666;2022-11-11T05:46:37;100087.00;;;1.26;100.00
55217;BME280;41086;46.736;15.666;2022-11-11T05:49:23;100113.06;;;1.41;100.00
55217;BME280;41086;46.736;15.666;2022-11-11T05:52:11;100116.56;;;1.37;100.00
55217;BME280;41086;46.736;15.666;2022-11-11T05:54:57;100132.25;;;1.32;100.00
55217;BME280;41086;46.736;15.666;2022-11-11T05:57:43;100133.09;;;1.35;100.00
55217;BME280;41086;46.736;15.666;2022-11-11T06:00:29;100135.75;;;1.24;100.00
55217;BME280;41086;46.736;15.666;2022-11-11T06:03:14;100146.22;;;1.19;100.00
55217;BME280;41086;46.736;15.666;2022-11-11T06:05:59;100144.50;;;1.17;100.00
55217;BME280;41086;46.736;15.666;2022-11-11T06:08:45;100141.94;;;1.09;100.00
55217;BME280;41086;46.736;15.666;2022-11-11T06:11:31;100141.91;;;1.10;100.00
55217;BME280;41086;46.736;15.666;2022-11-11T06:14:17;100144.53;;;1.10;100.00
55217;BME280;41086;46.736;15.666;2022-11-11T06:17:03;100145.38;;;1.11;100.00
55217;BME280;41086;46.736;15.666;2022-11-11T06:19:48;100141.03;;;1.08;100.00
55217;BME280;41086;46.736;15.666;2022-11-11T06:22:33;100150.63;;;1.09;100.00
55217;BME280;41086;46.736;15.666;2022-11-11T06:25:38;100153.22;;;1.13;100.00
55217;BME280;41086;46.736;15.666;2022-11-11T06:28:50;100161.06;;;1.14;100.00
55217;BME280;41086;46.736;15.666;2022-11-11T06:31:35;100164.50;;;1.19;100.00
55217;BME280;41086;46.736;15.666;2022-11-11T06:34:21;100161.94;;;1.13;100.00
55217;BME280;41086;46.736;15.666;2022-11-11T06:37:06;100162.75;;;1.21;100.00
55217;BME280;41086;46.736;15.666;2022-11-11T06:39:51;100163.63;;;1.26;100.00
55217;BME280;41086;46.736;15.666;2022-11-11T06:42:37;100141.03;;;1.13;100.00
55217;BME280;41086;46.736;15.666;2022-11-11T06:45:27;100159.28;;;1.25;100.00
55217;BME280;41086;46.736;15.666;2022-11-11T06:48:12;100162.75;;;1.29;100.00
55217;BME280;41086;46.736;15.666;2022-11-11T06:51:03;100155.75;;;1.32;100.00
55217;BME280;41086;46.736;15.666;2022-11-11T06:53:49;100156.59;;;1.38;100.00
55217;BME280;41086;46.736;15.666;2022-11-11T06:56:34;100152.22;;;1.46;100.00
55217;BME280;41086;46.736;15.666;2022-11-11T06:59:19;100160.91;;;1.46;100.00
55217;BME280;41086;46.736;15.666;2022-11-11T07:02:05;100168.72;;;1.51;100.00
55217;BME280;41086;46.736;15.666;2022-11-11T07:04:50;100167.84;;;1.53;100.00
55217;BME280;41086;46.736;15.666;2022-11-11T07:07:37;100178.28;;;1.61;100.00
55217;BME280;41086;46.736;15.666;2022-11-11T07:10:24;100169.56;;;1.61;100.00
55217;BME280;41086;46.736;15.666;2022-11-11T07:13:09;100174.75;;;1.68;100.00
55217;BME280;41086;46.736;15.666;2022-11-11T07:15:55;100172.13;;;1.67;100.00
55217;BME280;41086;46.736;15.666;2022-11-11T07:18:40;100164.31;;;1.67;100.00
55217;BME280;41086;46.736;15.666;2022-11-11T07:21:25;100168.63;;;1.71;100.00
55217;BME280;41086;46.736;15.666;2022-11-11T07:24:11;100159.91;;;1.76;100.00
55217;BME280;41086;46.736;15.666;2022-11-11T07:26:56;100161.56;;;1.88;100.00
55217;BME280;41086;46.736;15.666;2022-11-11T07:29:43;100167.56;;;1.98;100.00
55217;BME280;41086;46.736;15.666;2022-11-11T07:32:28;100165.00;;;1.95;100.00
55217;BME280;41086;46.736;15.666;2022-11-11T07:35:14;100172.81;;;1.95;100.00
55217;BME280;41086;46.736;15.666;2022-11-11T07:38:00;100164.94;;;2.03;100.00
55217;BME280;41086;46.736;15.666;2022-11-11T07:40:46;100166.72;;;1.97;100.00
55217;BME280;41086;46.736;15.666;2022-11-11T07:43:31;100160.69;;;1.88;100.00
55217;BME280;41086;46.736;15.666;2022-11-11T07:46:17;100165.91;;;1.91;100.00
55217;BME280;41086;46.736;15.666;2022-11-11T07:49:02;100165.00;;;1.96;100.00
55217;BME280;41086;46.736;15.666;2022-11-11T07:51:48;100154.56;;;1.87;100.00
55217;BME280;41086;46.736;15.666;2022-11-11T07:54:34;100170.22;;;1.95;100.00
55217;BME280;41086;46.736;15.666;2022-11-11T07:57:20;100171.09;;;1.92;100.00
55217;BME280;41086;46.736;15.666;2022-11-11T08:00:06;100161.47;;;2.04;100.00
55217;BME280;41086;46.736;15.666;2022-11-11T08:02:52;100177.91;;;2.18;100.00
55217;BME280;41086;46.736;15.666;2022-11-11T08:05:43;100166.50;;;2.28;100.00
55217;BME280;41086;46.736;15.666;2022-11-11T08:08:29;100170.72;;;2.41;100.00
55217;BME280;41086;46.736;15.666;2022-11-11T08:11:15;100162.91;;;2.40;100.00
55217;BME280;41086;46.736;15.666;2022-11-11T08:14:01;100187.19;;;2.56;100.00
55217;BME280;41086;46.736;15.666;2022-11-11T08:16:47;100183.59;;;2.67;100.00
55217;BME280;41086;46.736;15.666;2022-11-11T08:19:32;100185.31;;;2.72;100.00
55217;BME280;41086;46.736;15.666;2022-11-11T08:22:18;100180.94;;;2.71;100.00
55217;BME280;41086;46.736;15.666;2022-11-11T08:25:06;100189.63;;;2.77;100.00
55217;BME280;41086;46.736;15.666;2022-11-11T08:27:57;100197.34;;;2.91;100.00
55217;BME280;41086;46.736;15.666;2022-11-11T08:30:43;100196.44;;;2.94;100.00
55217;BME280;41086;46.736;15.666;2022-11-11T08:33:28;100195.47;;;3.02;100.00
55217;BME280;41086;46.736;15.666;2022-11-11T08:36:20;100207.81;;;2.91;100.00
55217;BME280;41086;46.736;15.666;2022-11-11T08:39:08;100214.72;;;2.98;100.00
55217;BME280;41086;46.736;15.666;2022-11-11T08:41:54;100218.06;;;3.13;100.00
55217;BME280;41086;46.736;15.666;2022-11-11T08:44:40;100215.19;;;3.36;100.00
55217;BME280;41086;46.736;15.666;2022-11-11T08:47:25;100199.53;;;3.29;100.00
55217;BME280;41086;46.736;15.666;2022-11-11T08:50:11;100217.81;;;3.37;100.00
55217;BME280;41086;46.736;15.666;2022-11-11T08:52:57;100210.75;;;3.41;100.00
55217;BME280;41086;46.736;15.666;2022-11-11T08:55:42;100214.97;;;3.52;100.00
55217;BME280;41086;46.736;15.666;2022-11-11T08:58:28;100220.13;;;3.60;100.00
55217;BME280;41086;46.736;15.666;2022-11-11T09:01:14;100212.16;;;3.69;100.00
55217;BME280;41086;46.736;15.666;2022-11-11T09:04:00;100216.19;;;3.96;100.00
55217;BME280;41086;46.736;15.666;2022-11-11T09:07:07;100225.75;;;3.99;100.00
55217;BME280;41086;46.736;15.666;2022-11-11T09:09:53;100215.94;;;4.12;100.00
55217;BME280;41086;46.736;15.666;2022-11-11T09:12:38;100205.44;;;4.13;100.00
55217;BME280;41086;46.736;15.666;2022-11-11T09:15:24;100207.94;;;4.19;100.00
55217;BME280;41086;46.736;15.666;2022-11-11T09:18:10;100215.66;;;4.32;100.00
55217;BME280;41086;46.736;15.666;2022-11-11T09:20:59;100213.72;;;4.41;100.00
55217;BME280;41086;46.736;15.666;2022-11-11T09:23:44;100219.69;;;4.53;100.00
55217;BME280;41086;46.736;15.666;2022-11-11T09:26:29;100212.63;;;4.56;100.00
55217;BME280;41086;46.736;15.666;2022-11-11T09:29:15;100193.25;;;4.63;100.00
55217;BME280;41086;46.736;15.666;2022-11-11T09:32:01;100192.94;;;4.80;100.00
55217;BME280;41086;46.736;15.666;2022-11-11T09:34:47;100198.19;;;4.80;100.00
55217;BME280;41086;46.736;15.666;2022-11-11T09:37:32;100190.38;;;4.77;100.00
55217;BME280;41086;46.736;15.666;2022-11-11T09:40:19;100173.69;;;4.81;100.00
55217;BME280;41086;46.736;15.666;2022-11-11T09:43:23;100180.53;;;4.88;100.00
55217;BME280;41086;46.736;15.666;2022-11-11T09:46:35;100177.75;;;4.98;100.00
55217;BME280;41086;46.736;15.666;2022-11-11T09:49:37;100177.28;;;5.21;100.00
55217;BME280;41086;46.736;15.666;2022-11-11T09:52:56;100176.56;;;5.14;100.00
55217;BME280;41086;46.736;15.666;2022-11-11T09:55:49;100172.94;;;5.21;100.00
55217;BME280;41086;46.736;15.666;2022-11-11T09:58:46;100184.03;;;5.36;100.00
55217;BME280;41086;46.736;15.666;2022-11-11T10:01:42;100178.44;;;5.51;100.00
55217;BME280;41086;46.736;15.666;2022-11-11T10:04:38;100168.09;;;5.84;100.00
55217;BME280;41086;46.736;15.666;2022-11-11T10:07:42;100167.81;;;5.57;100.00
55217;BME280;41086;46.736;15.666;2022-11-11T10:10:48;100168.78;;;5.93;100.00
55217;BME280;41086;46.736;15.666;2022-11-11T10:13:36;100163.47;;;6.32;100.00
55217;BME280;41086;46.736;15.666;2022-11-11T10:16:32;100164.69;;;6.55;100.00
55217;BME280;41086;46.736;15.666;2022-11-11T10:22:32;100159.78;;;6.41;100.00
55217;BME280;41086;46.736;15.666;2022-11-11T10:25:24;100177.38;;;6.37;100.00
55217;BME280;41086;46.736;15.666;2022-11-11T10:28:15;100183.22;;;6.50;100.00
55217;BME280;41086;46.736;15.666;2022-11-11T10:31:04;100171.91;;;6.47;100.00
55217;BME280;41086;46.736;15.666;2022-11-11T10:34:04;100175.13;;;6.58;100.00
55217;BME280;41086;46.736;15.666;2022-11-11T10:36:55;100163.38;;;6.71;100.00
55217;BME280;41086;46.736;15.666;2022-11-11T10:42:48;100160.47;;;6.82;100.00
55217;BME280;41086;46.736;15.666;2022-11-11T10:45:51;100150.25;;;7.02;100.00
55217;BME280;41086;46.736;15.666;2022-11-11T10:54:57;100160.13;;;7.86;100.00
55217;BME280;41086;46.736;15.666;2022-11-11T10:57:51;100169.88;;;8.12;100.00
55217;BME280;41086;46.736;15.666;2022-11-11T11:00:37;100146.16;;;8.39;100.00
55217;BME280;41086;46.736;15.666;2022-11-11T11:03:37;100158.94;;;8.51;100.00
55217;BME280;41086;46.736;15.666;2022-11-11T11:06:27;100157.13;;;8.78;100.00
55217;BME280;41086;46.736;15.666;2022-11-11T11:12:14;100156.63;;;9.42;100.00
55217;BME280;41086;46.736;15.666;2022-11-11T11:15:05;100192.31;;;9.56;100.00
55217;BME280;41086;46.736;15.666;2022-11-11T11:20:56;100222.00;;;10.09;100.00
55217;BME280;41086;46.736;15.666;2022-11-11T11:23:44;100260.22;;;9.80;100.00
55217;BME280;41086;46.736;15.666;2022-11-11T11:26:43;100260.22;;;9.55;100.00
55217;BME280;41086;46.736;15.666;2022-11-11T11:32:16;100152.56;;;10.23;100.00
55217;BME280;41086;46.736;15.666;2022-11-11T11:35:03;100260.50;;;9.72;100.00
55217;BME280;41086;46.736;15.666;2022-11-11T11:37:49;100258.94;;;9.67;100.00
55217;BME280;41086;46.736;15.666;2022-11-11T11:40:48;100257.19;;;9.91;100.00
55217;BME280;41086;46.736;15.666;2022-11-11T11:43:36;100253.31;;;9.99;100.00
55217;BME280;41086;46.736;15.666;2022-11-11T11:46:36;100249.84;;;9.97;100.00
55217;BME280;41086;46.736;15.666;2022-11-11T11:55:42;100251.00;;;9.67;100.00
55217;BME280;41086;46.736;15.666;2022-11-11T12:11:20;100240.22;;;9.48;100.00
55217;BME280;41086;46.736;15.666;2022-11-11T12:17:29;100232.91;;;9.54;100.00
55217;BME280;41086;46.736;15.666;2022-11-11T12:20:23;100234.59;;;9.57;100.00
55217;BME280;41086;46.736;15.666;2022-11-11T12:26:20;100234.84;;;9.74;100.00
55217;BME280;41086;46.736;15.666;2022-11-11T12:35:33;100246.47;;;9.94;100.00
55217;BME280;41086;46.736;15.666;2022-11-11T12:41:51;100253.63;;;10.81;100.00
55217;BME280;41086;46.736;15.666;2022-11-11T12:51:08;100238.53;;;11.24;100.00
55217;BME280;41086;46.736;15.666;2022-11-11T12:54:09;100233.69;;;11.34;100.00
55217;BME280;41086;46.736;15.666;2022-11-11T13:00:14;100225.56;;;11.37;100.00
55217;BME280;41086;46.736;15.666;2022-11-11T13:06:30;100229.44;;;11.30;100.00
55217;BME280;41086;46.736;15.666;2022-11-11T13:12:30;100225.66;;;11.15;100.00
55217;BME280;41086;46.736;15.666;2022-11-11T13:15:23;100222.56;;;11.05;100.00
55217;BME280;41086;46.736;15.666;2022-11-11T13:18:16;100212.47;;;11.14;100.00
55217;BME280;41086;46.736;15.666;2022-11-11T13:21:06;100222.16;;;11.15;100.00
55217;BME280;41086;46.736;15.666;2022-11-11T13:23:54;100222.56;;;11.05;100.00
55217;BME280;41086;46.736;15.666;2022-11-11T13:26:43;100229.00;;;11.00;100.00
55217;BME280;41086;46.736;15.666;2022-11-11T13:33:02;100216.41;;;11.05;100.00
55217;BME280;41086;46.736;15.666;2022-11-11T13:35:58;100211.94;;;11.05;100.00
55217;BME280;41086;46.736;15.666;2022-11-11T13:38:48;100213.44;;;11.31;100.00
55217;BME280;41086;46.736;15.666;2022-11-11T13:41:38;100208.19;;;11.50;100.00
55217;BME280;41086;46.736;15.666;2022-11-11T13:44:31;100203.59;;;11.54;100.00
55217;BME280;41086;46.736;15.666;2022-11-11T13:47:21;100199.22;;;11.53;100.00
55217;BME280;41086;46.736;15.666;2022-11-11T13:50:23;100217.66;;;11.56;100.00
55217;BME280;41086;46.736;15.666;2022-11-11T13:53:28;100218.91;;;11.68;100.00
55217;BME280;41086;46.736;15.666;2022-11-11T13:56:37;100221.97;;;11.59;100.00
55217;BME280;41086;46.736;15.666;2022-11-11T14:07:52;100209.19;;;11.67;100.00
55217;BME280;41086;46.736;15.666;2022-11-11T14:10:51;100230.19;;;11.73;100.00
55217;BME280;41086;46.736;15.666;2022-11-11T14:13:39;100218.78;;;11.71;100.00
55217;BME280;41086;46.736;15.666;2022-11-11T14:25:23;100219.97;;;11.24;100.00
55217;BME280;41086;46.736;15.666;2022-11-11T14:28:31;100220.91;;;11.03;100.00
55217;BME280;41086;46.736;15.666;2022-11-11T14:34:23;100224.00;;;10.92;100.00
55217;BME280;41086;46.736;15.666;2022-11-11T14:37:20;100224.06;;;10.91;100.00
55217;BME280;41086;46.736;15.666;2022-11-11T14:40:10;100216.31;;;10.86;100.00
55217;BME280;41086;46.736;15.666;2022-11-11T14:42:57;100222.75;;;10.80;100.00
55217;BME280;41086;46.736;15.666;2022-11-11T14:48:51;100221.75;;;10.61;100.00
55217;BME280;41086;46.736;15.666;2022-11-11T14:54:32;100215.84;;;10.32;100.00
55217;BME280;41086;46.736;15.666;2022-11-11T14:57:22;100204.16;;;10.14;100.00
55217;BME280;41086;46.736;15.666;2022-11-11T15:03:08;100193.66;;;9.89;100.00
55217;BME280;41086;46.736;15.666;2022-11-11T15:06:12;100193.94;;;9.82;100.00
55217;BME280;41086;46.736;15.666;2022-11-11T15:15:25;100173.69;;;9.33;100.00
55217;BME280;41086;46.736;15.666;2022-11-11T15:18:27;100139.06;;;9.16;100.00
55217;BME280;41086;46.736;15.666;2022-11-11T15:21:33;100130.00;;;8.98;100.00
55217;BME280;41086;46.736;15.666;2022-11-11T15:24:29;100132.03;;;8.90;100.00
55217;BME280;41086;46.736;15.666;2022-11-11T15:30:21;100103.78;;;8.67;100.00
55217;BME280;41086;46.736;15.666;2022-11-11T15:33:17;100112.66;;;8.66;100.00
55217;BME280;41086;46.736;15.666;2022-11-11T15:36:15;100097.69;;;8.65;100.00
55217;BME280;41086;46.736;15.666;2022-11-11T15:39:06;100084.53;;;8.63;100.00
55217;BME280;41086;46.736;15.666;2022-11-11T15:41:54;100082.69;;;8.65;100.00
55217;BME280;41086;46.736;15.666;2022-11-11T15:44:40;100081.22;;;8.57;100.00
55217;BME280;41086;46.736;15.666;2022-11-11T15:47:26;100092.88;;;8.51;100.00
55217;BME280;41086;46.736;15.666;2022-11-11T15:50:29;100087.13;;;8.38;100.00
55217;BME280;41086;46.736;15.666;2022-11-11T15:53:22;100093.75;;;8.25;100.00
55217;BME280;41086;46.736;15.666;2022-11-11T15:56:08;100100.25;;;8.15;100.00
55217;BME280;41086;46.736;15.666;2022-11-11T15:58:53;100090.03;;;8.04;100.00
55217;BME280;41086;46.736;15.666;2022-11-11T16:01:39;100066.88;;;8.12;100.00
55217;BME280;41086;46.736;15.666;2022-11-11T16:04:24;100050.94;;;8.15;100.00
55217;BME280;41086;46.736;15.666;2022-11-11T16:07:33;100048.19;;;8.18;100.00
55217;BME280;41086;46.736;15.666;2022-11-11T16:10:36;100049.28;;;8.11;100.00
55217;BME280;41086;46.736;15.666;2022-11-11T16:13:32;100053.69;;;8.12;100.00
55217;BME280;41086;46.736;15.666;2022-11-11T16:16:21;100088.72;;;7.91;100.00
55217;BME280;41086;46.736;15.666;2022-11-11T16:24:46;100075.69;;;7.28;100.00
55217;BME280;41086;46.736;15.666;2022-11-11T16:27:32;100078.44;;;7.24;100.00
55217;BME280;41086;46.736;15.666;2022-11-11T16:30:32;100070.81;;;7.15;100.00
55217;BME280;41086;46.736;15.666;2022-11-11T16:36:10;100082.06;;;6.90;100.00
55217;BME280;41086;46.736;15.666;2022-11-11T16:39:18;100097.34;;;6.77;100.00
55217;BME280;41086;46.736;15.666;2022-11-11T16:42:22;100096.88;;;6.63;100.00
55217;BME280;41086;46.736;15.666;2022-11-11T16:45:20;100102.59;;;6.46;100.00
55217;BME280;41086;46.736;15.666;2022-11-11T16:51:39;100075.03;;;6.58;100.00
55217;BME280;41086;46.736;15.666;2022-11-11T16:54:27;100054.19;;;6.81;100.00